Time;durP1;ratioP1;P1;durP2;ratioP2;P2;SDS_P1;SDS_P2;PMS_P1;PMS_P2;Temp;Humidity;BMP_temperature;BMP_pressure;BME280_temperature;BME280_humidity;BME280_pressure;Samples;Min_cycle;Max_cycle;Signal;HPM_P1;HPM_P2
2022/09/09 00:00:18;;;;;;;3.35;0.70;;;;;;;18.85;92.21;99686.28;5036319;28;20104;-73
2022/09/09 00:03:03;;;;;;;3.17;0.90;;;;;;;18.89;92.37;99692.31;5030225;28;20033;-74
2022/09/09 00:05:38;;;;;;;6.07;1.33;;;;;;;18.85;92.53;99680.88;5023249;28;20041;-74
2022/09/09 00:08:04;;;;;;;3.15;1.17;;;;;;;18.88;91.61;99677.13;5033146;28;20534;-74
2022/09/09 00:10:40;;;;;;;2.95;1.17;;;;;;;18.88;91.77;99677.13;5050195;28;20074;-73
2022/09/09 00:13:27;;;;;;;5.60;1.00;;;;;;;18.91;92.01;99684.97;5049456;28;20036;-73
2022/09/09 00:16:18;;;;;;;1.95;0.85;;;;;;;18.88;92.62;99680.66;5035253;28;20116;-73
2022/09/09 00:18:56;;;;;;;8.13;1.27;;;;;;;18.92;92.68;99686.69;5053618;28;20037;-74
2022/09/09 00:21:34;;;;;;;2.88;0.90;;;;;;;18.87;92.70;99684.34;5053313;28;20431;-74
2022/09/09 00:24:04;;;;;;;3.03;1.00;;;;;;;18.84;93.48;99687.25;5053212;28;20028;-73
2022/09/09 00:26:40;;;;;;;5.85;1.13;;;;;;;18.84;93.42;99695.34;5035013;28;20028;-75
2022/09/09 00:29:22;;;;;;;1.58;1.10;;;;;;;18.74;94.18;99671.84;5053043;28;20108;-73
2022/09/09 00:31:48;;;;;;;4.20;1.30;;;;;;;18.87;94.46;99699.63;5052800;28;20077;-73
2022/09/09 00:34:23;;;;;;;2.58;0.90;;;;;;;18.83;93.82;99707.06;5052838;28;20067;-73
2022/09/09 00:36:51;;;;;;;2.00;0.98;;;;;;;18.85;93.16;99706.97;5053723;28;20033;-73
2022/09/09 00:39:41;;;;;;;1.90;0.90;;;;;;;18.86;93.51;99714.94;5053739;28;20029;-74
2022/09/09 00:42:15;;;;;;;2.58;1.00;;;;;;;18.83;94.83;99714.31;5054062;28;20108;-74
2022/09/09 00:44:55;;;;;;;3.58;0.93;;;;;;;18.78;95.06;99732.66;5052466;28;20036;-75
2022/09/09 00:47:30;;;;;;;2.97;1.08;;;;;;;18.73;95.23;99740.19;5053811;28;20017;-75
2022/09/09 00:50:24;;;;;;;5.82;1.02;;;;;;;18.76;96.48;99757.00;5053348;28;20035;-74
2022/09/09 00:53:19;;;;;;;3.25;1.13;;;;;;;18.67;97.67;99754.06;5053740;28;20479;-75
2022/09/09 00:55:47;;;;;;;4.45;1.10;;;;;;;18.63;98.71;99749.88;5053591;28;20029;-77
2022/09/09 00:58:13;;;;;;;3.13;1.23;;;;;;;18.55;100.00;99752.25;5053623;28;20479;-75
2022/09/09 01:00:49;;;;;;;5.38;1.20;;;;;;;18.58;100.00;99760.09;5053527;28;20457;-72
2022/09/09 01:03:14;;;;;;;4.72;1.73;;;;;;;18.53;100.00;99744.28;5057203;23;20049;-80
2022/09/09 01:06:01;;;;;;;4.45;1.05;;;;;;;18.53;100.00;99762.25;5048195;28;20191;-80
2022/09/09 01:08:35;;;;;;;4.65;1.13;;;;;;;18.50;100.00;99741.75;5028331;28;20492;-82
2022/09/09 01:11:02;;;;;;;4.55;1.30;;;;;;;18.38;100.00;99735.34;5011173;28;20026;-82
2022/09/09 01:13:34;;;;;;;5.68;1.23;;;;;;;18.30;100.00;99726.94;5012154;28;20485;-81
2022/09/09 01:16:02;;;;;;;2.83;1.00;;;;;;;18.26;100.00;99714.69;5011863;28;20029;-81
2022/09/09 01:18:34;;;;;;;4.40;0.70;;;;;;;18.21;100.00;99706.06;5011508;28;20030;-81
2022/09/09 01:21:20;;;;;;;2.67;0.90;;;;;;;18.18;100.00;99705.41;5028320;28;20037;-81
2022/09/09 01:24:13;;;;;;;4.03;0.63;;;;;;;18.12;100.00;99712.06;5032901;28;20039;-80
2022/09/09 01:26:43;;;;;;;1.90;0.50;;;;;;;17.96;100.00;99708.69;5032318;28;20957;-79
2022/09/09 01:29:12;;;;;;;1.30;0.60;;;;;;;17.95;100.00;99720.44;5014631;28;20394;-79
2022/09/09 01:31:41;;;;;;;1.73;0.80;;;;;;;17.79;100.00;99700.88;5016086;28;20021;-79
2022/09/09 01:34:13;;;;;;;3.47;1.00;;;;;;;17.91;100.00;99709.94;5012146;28;20080;-79
2022/09/09 01:36:50;;;;;;;2.90;0.80;;;;;;;17.78;100.00;99691.09;5012082;28;20054;-78
2022/09/09 01:39:15;;;;;;;1.80;0.70;;;;;;;17.81;100.00;99700.75;5012008;28;20030;-79
2022/09/09 01:41:41;;;;;;;2.05;1.05;;;;;;;17.72;100.00;99691.50;5010607;28;20122;-79
2022/09/09 01:44:08;;;;;;;2.55;0.90;;;;;;;17.55;100.00;99683.69;5012705;28;20124;-79
2022/09/09 01:46:33;;;;;;;1.88;1.05;;;;;;;17.76;100.00;99719.06;5009793;28;20444;-79
2022/09/09 01:49:01;;;;;;;1.73;0.60;;;;;;;17.70;100.00;99704.19;5009769;28;20120;-79
2022/09/09 01:51:28;;;;;;;3.78;0.98;;;;;;;17.73;100.00;99698.59;5011373;28;20033;-80
2022/09/09 01:53:53;;;;;;;3.40;0.90;;;;;;;17.54;100.00;99665.84;5010079;28;20049;-79
2022/09/09 01:56:28;;;;;;;1.85;0.70;;;;;;;17.55;100.00;99693.56;5010096;28;20073;-79
2022/09/09 01:59:43;;;;;;;2.15;0.60;;;;;;;17.52;100.00;99691.97;5010945;28;20038;-79
2022/09/09 02:02:28;;;;;;;3.40;2.05;;;;;;;17.51;100.00;99684.84;5004156;28;20125;-79
2022/09/09 02:05:28;;;;;;;2.70;0.70;;;;;;;17.48;100.00;99687.72;5011421;28;20053;-79
2022/09/09 02:08:07;;;;;;;14.43;1.23;;;;;;;17.54;100.00;99692.72;5011762;28;20025;-79
2022/09/09 02:11:01;;;;;;;1.17;0.75;;;;;;;17.56;100.00;99660.34;5010982;28;20108;-79
2022/09/09 02:13:29;;;;;;;6.85;1.02;;;;;;;17.56;100.00;99663.88;5008324;28;20057;-79
2022/09/09 02:16:11;;;;;;;5.55;1.38;;;;;;;17.55;100.00;99664.84;5010517;28;20026;-78
2022/09/09 02:18:43;;;;;;;1.73;0.60;;;;;;;17.47;100.00;99669.00;4991695;28;20109;-78
2022/09/09 02:21:13;;;;;;;1.35;1.08;;;;;;;17.52;100.00;99686.59;4991391;28;20053;-79
2022/09/09 02:23:42;;;;;;;1.92;0.55;;;;;;;17.42;100.00;99663.91;4990426;28;20524;-78
2022/09/09 02:26:13;;;;;;;1.08;0.50;;;;;;;17.48;100.00;99670.75;5006464;28;20437;-78
2022/09/09 02:28:40;;;;;;;0.77;0.60;;;;;;;17.44;100.00;99667.38;4996122;28;20034;-77
2022/09/09 02:31:05;;;;;;;1.60;0.63;;;;;;;17.50;100.00;99666.97;5010620;28;20082;-78
2022/09/09 02:33:39;;;;;;;1.90;0.60;;;;;;;17.52;100.00;99661.50;5010918;28;20022;-78
2022/09/09 02:36:08;;;;;;;1.30;0.90;;;;;;;17.56;100.00;99674.63;5010931;28;20469;-77
2022/09/09 02:38:39;;;;;;;2.78;0.82;;;;;;;17.50;100.00;99669.69;5011244;28;20030;-78
2022/09/09 02:41:06;;;;;;;1.00;0.50;;;;;;;17.46;100.00;99670.81;5009615;28;20056;-78
2022/09/09 02:43:33;;;;;;;4.05;0.88;;;;;;;17.47;100.00;99680.63;5009246;28;20454;-78
2022/09/09 02:46:28;;;;;;;2.50;0.82;;;;;;;17.50;100.00;99685.81;5010906;28;20478;-78
2022/09/09 02:49:01;;;;;;;1.33;0.63;;;;;;;17.55;100.00;99686.38;5025428;28;20057;-78
2022/09/09 02:51:43;;;;;;;4.38;0.80;;;;;;;17.55;100.00;99683.69;5029090;28;20496;-78
2022/09/09 02:54:17;;;;;;;2.33;0.80;;;;;;;17.58;100.00;99688.84;5029088;28;20033;-78
2022/09/09 02:56:50;;;;;;;2.78;0.90;;;;;;;17.60;100.00;99692.31;4989687;28;20026;-78
2022/09/09 02:59:17;;;;;;;2.10;0.77;;;;;;;17.62;100.00;99690.38;4989113;28;20037;-78
2022/09/09 03:01:43;;;;;;;4.43;1.30;;;;;;;17.67;100.00;99682.88;5008158;28;20264;-78
2022/09/09 03:04:09;;;;;;;1.10;0.65;;;;;;;17.62;100.00;99679.63;5009091;28;20125;-78
2022/09/09 03:06:35;;;;;;;1.40;0.63;;;;;;;17.50;100.00;99675.06;5008668;28;20124;-78
2022/09/09 03:09:02;;;;;;;1.90;0.90;;;;;;;17.50;100.00;99669.69;5010248;28;20029;-78
2022/09/09 03:11:28;;;;;;;2.83;0.95;;;;;;;17.57;100.00;99680.88;5008876;28;20030;-78
2022/09/09 03:13:55;;;;;;;2.95;0.75;;;;;;;17.57;100.00;99680.88;5010127;28;20092;-78
2022/09/09 03:16:22;;;;;;;2.90;0.70;;;;;;;17.50;100.00;99669.69;5010318;28;20025;-78
2022/09/09 03:18:48;;;;;;;1.52;0.80;;;;;;;17.40;100.00;99662.28;5011931;28;20051;-78
2022/09/09 03:21:14;;;;;;;3.88;1.45;;;;;;;17.47;100.00;99672.56;5011161;28;20017;-78
2022/09/09 03:23:39;;;;;;;2.08;0.77;;;;;;;17.51;100.00;99676.75;5010413;28;20018;-78
2022/09/09 03:26:05;;;;;;;5.30;0.80;;;;;;;17.45;100.00;99660.16;5008829;28;20112;-78
2022/09/09 03:28:31;;;;;;;6.18;1.10;;;;;;;17.48;100.00;99673.44;5008117;28;20017;-78
2022/09/09 03:31:04;;;;;;;2.67;0.90;;;;;;;17.50;100.00;99679.56;5008476;28;20504;-78
2022/09/09 03:33:31;;;;;;;3.38;0.77;;;;;;;17.32;100.00;99648.47;5009190;28;20025;-78
2022/09/09 03:35:57;;;;;;;2.97;0.75;;;;;;;17.46;100.00;99684.28;5010014;28;20030;-78
2022/09/09 03:38:26;;;;;;;1.73;0.80;;;;;;;17.34;100.00;99662.69;5010145;28;20026;-78
2022/09/09 03:40:57;;;;;;;1.75;0.60;;;;;;;17.45;100.00;99682.56;5009503;28;20034;-78
2022/09/09 03:43:26;;;;;;;2.60;1.00;;;;;;;17.39;100.00;99668.63;5009967;28;20057;-78
2022/09/09 03:45:53;;;;;;;4.60;0.93;;;;;;;17.38;100.00;99659.69;5012552;28;20469;-78
2022/09/09 03:48:19;;;;;;;2.80;0.85;;;;;;;17.30;100.00;99664.72;5010596;28;20339;-78
2022/09/09 03:50:50;;;;;;;5.57;1.27;;;;;;;17.30;100.00;99669.25;5012820;28;20092;-78
2022/09/09 03:53:17;;;;;;;3.28;0.90;;;;;;;17.34;100.00;99684.19;5009508;28;20028;-78
2022/09/09 03:55:59;;;;;;;10.52;1.25;;;;;;;17.30;100.00;99680.84;4992320;28;20121;-78
2022/09/09 03:58:26;;;;;;;11.32;1.30;;;;;;;17.21;100.00;99673.38;4994213;28;20026;-78
2022/09/09 04:01:10;;;;;;;5.10;0.85;;;;;;;17.25;100.00;99684.81;4992725;28;20022;-78
2022/09/09 04:03:35;;;;;;;1.63;0.50;;;;;;;17.17;100.00;99679.91;4992604;28;20038;-78
2022/09/09 04:06:04;;;;;;;1.17;0.47;;;;;;;17.18;100.00;99678.97;5005756;28;20036;-78
2022/09/09 04:08:31;;;;;;;5.07;1.38;;;;;;;17.15;100.00;99673.75;5012858;28;20057;-78
2022/09/09 04:10:57;;;;;;;3.55;1.42;;;;;;;17.07;100.00;99673.41;5012329;28;20045;-78
2022/09/09 04:13:24;;;;;;;3.75;0.70;;;;;;;17.12;100.00;99684.72;5011659;28;20033;-78
2022/09/09 04:15:52;;;;;;;2.25;0.73;;;;;;;17.05;100.00;99688.75;5011887;28;20104;-78
2022/09/09 04:18:19;;;;;;;3.67;0.80;;;;;;;16.96;100.00;99681.28;5011022;28;20676;-78
2022/09/09 04:20:46;;;;;;;8.68;0.80;;;;;;;16.98;100.00;99693.66;5011171;28;20038;-78
2022/09/09 04:23:12;;;;;;;7.68;1.10;;;;;;;16.97;100.00;99688.38;5013735;28;20053;-78
2022/09/09 04:25:37;;;;;;;5.47;0.80;;;;;;;17.07;100.00;99694.91;5012686;28;20065;-78
2022/09/09 04:28:03;;;;;;;2.83;0.70;;;;;;;17.00;100.00;99688.22;5012296;28;20037;-78
2022/09/09 04:30:29;;;;;;;5.35;0.95;;;;;;;16.86;100.00;99655.97;5011808;28;20042;-78
2022/09/09 04:32:54;;;;;;;3.22;0.70;;;;;;;16.91;100.00;99680.72;5010898;28;20029;-78
2022/09/09 04:35:19;;;;;;;3.90;0.70;;;;;;;16.84;100.00;99668.63;5011236;28;20033;-78
2022/09/09 04:37:45;;;;;;;8.20;1.50;;;;;;;16.87;100.00;99680.06;5012018;28;20018;-78
2022/09/09 04:40:11;;;;;;;30.83;3.50;;;;;;;16.93;100.00;99692.25;5011760;28;20457;-78
2022/09/09 04:42:38;;;;;;;5.53;0.90;;;;;;;16.80;100.00;99677.88;5012164;28;20067;-78
2022/09/09 04:45:06;;;;;;;1.98;1.10;;;;;;;16.96;100.00;99700.09;5013679;28;20025;-78
2022/09/09 04:47:31;;;;;;;2.55;0.70;;;;;;;16.95;100.00;99709.13;5028379;28;20025;-78
2022/09/09 04:49:57;;;;;;;6.35;0.93;;;;;;;17.04;100.00;99713.91;5013642;28;20096;-78
2022/09/09 04:52:22;;;;;;;1.63;0.60;;;;;;;17.04;100.00;99703.16;5014878;28;20137;-78
2022/09/09 04:54:48;;;;;;;1.42;0.60;;;;;;;16.99;100.00;99706.16;5012866;28;20492;-78
2022/09/09 04:57:13;;;;;;;2.47;0.80;;;;;;;16.99;100.00;99707.97;5011436;28;20084;-78
2022/09/09 04:59:39;;;;;;;1.15;0.68;;;;;;;16.93;100.00;99705.69;5009822;28;20030;-78
2022/09/09 05:02:05;;;;;;;5.38;1.55;;;;;;;16.98;100.00;99708.94;5011349;28;20485;-78
2022/09/09 05:04:31;;;;;;;1.75;0.65;;;;;;;16.92;100.00;99720.06;5010866;28;20054;-78
2022/09/09 05:06:56;;;;;;;1.95;0.65;;;;;;;16.83;100.00;99699.16;5011745;28;20033;-78
2022/09/09 05:09:22;;;;;;;1.55;0.47;;;;;;;16.84;100.00;99708.94;5009549;28;20018;-78
2022/09/09 05:11:47;;;;;;;2.47;0.80;;;;;;;16.83;100.00;99715.28;5012415;28;20076;-78
2022/09/09 05:14:14;;;;;;;0.60;0.40;;;;;;;16.78;100.00;99715.56;5013358;28;20095;-78
2022/09/09 05:16:39;;;;;;;2.15;0.75;;;;;;;16.71;100.00;99697.22;5011734;28;20034;-78
2022/09/09 05:19:06;;;;;;;6.47;1.00;;;;;;;16.81;100.00;99711.81;5010500;28;20053;-78
2022/09/09 05:21:31;;;;;;;3.80;0.70;;;;;;;16.70;100.00;99684.78;5012454;28;20473;-78
2022/09/09 05:23:57;;;;;;;4.05;0.70;;;;;;;16.84;100.00;99707.13;5010904;28;20303;-78
2022/09/09 05:26:23;;;;;;;1.35;0.60;;;;;;;16.84;100.00;99701.75;5010841;28;20025;-78
2022/09/09 05:28:49;;;;;;;1.88;0.70;;;;;;;16.92;100.00;99720.06;5012091;28;20079;-78
2022/09/09 05:31:16;;;;;;;2.80;0.60;;;;;;;17.04;100.00;99724.66;5013094;28;20033;-78
2022/09/09 05:33:45;;;;;;;3.55;1.15;;;;;;;17.06;100.00;99723.63;5010432;28;20022;-78
2022/09/09 05:36:17;;;;;;;4.20;0.80;;;;;;;17.07;100.00;99708.34;5011312;28;20025;-78
2022/09/09 05:38:43;;;;;;;2.65;0.70;;;;;;;17.17;100.00;99719.34;4990835;28;20034;-79
2022/09/09 05:41:15;;;;;;;3.90;1.05;;;;;;;17.34;100.00;99730.78;5007385;28;20023;-78
2022/09/09 05:43:43;;;;;;;1.40;0.70;;;;;;;17.27;100.00;99715.13;5007426;28;20052;-78
2022/09/09 05:46:11;;;;;;;3.45;0.95;;;;;;;17.46;100.00;99732.69;4992334;28;20124;-78
2022/09/09 05:48:41;;;;;;;4.10;0.80;;;;;;;17.46;100.00;99738.06;5007227;28;20402;-78
2022/09/09 05:51:12;;;;;;;2.25;0.73;;;;;;;17.49;100.00;99732.50;5004818;28;20092;-78
2022/09/09 05:53:38;;;;;;;3.60;1.15;;;;;;;17.57;100.00;99732.00;5007644;28;20026;-78
2022/09/09 05:56:14;;;;;;;4.25;1.25;;;;;;;17.55;100.00;99732.09;5009270;28;20029;-78
2022/09/09 05:58:40;;;;;;;11.07;1.17;;;;;;;17.64;100.00;99739.56;5009419;28;20117;-78
2022/09/09 06:01:15;;;;;;;4.55;1.02;;;;;;;17.68;100.00;99738.38;5010521;28;20037;-78
2022/09/09 06:03:42;;;;;;;5.18;1.30;;;;;;;17.71;100.00;99732.81;5009444;28;20140;-78
2022/09/09 06:06:11;;;;;;;4.72;1.77;;;;;;;17.82;100.00;99743.75;5005599;28;20037;-78
2022/09/09 06:08:39;;;;;;;3.13;1.20;;;;;;;17.85;100.00;99750.72;5005270;28;20117;-78
2022/09/09 06:11:30;;;;;;;6.72;2.00;;;;;;;17.85;100.00;99739.97;5025288;28;20061;-78
2022/09/09 06:13:56;;;;;;;1.60;0.95;;;;;;;17.89;100.00;99733.44;5026269;28;20116;-78
2022/09/09 06:16:25;;;;;;;2.03;1.20;;;;;;;18.03;100.00;99745.00;5008128;28;20772;-78
2022/09/09 06:18:51;;;;;;;4.57;0.80;;;;;;;18.01;100.00;99730.78;5009401;28;20415;-78
2022/09/09 06:21:30;;;;;;;4.28;1.10;;;;;;;18.17;100.00;99742.22;5008507;28;20057;-78
2022/09/09 06:23:56;;;;;;;2.58;1.17;;;;;;;18.21;100.00;99735.66;5010005;28;20397;-78
2022/09/09 06:26:25;;;;;;;3.83;1.10;;;;;;;18.32;100.00;99745.69;5009017;28;20084;-78
2022/09/09 06:28:52;;;;;;;1.98;0.77;;;;;;;18.33;100.00;99728.59;5003537;28;20029;-78
2022/09/09 06:31:21;;;;;;;5.38;1.05;;;;;;;18.45;100.00;99735.00;5005233;28;20046;-78
2022/09/09 06:33:48;;;;;;;2.63;0.90;;;;;;;18.46;100.00;99723.25;5009630;28;20029;-78
2022/09/09 06:36:28;;;;;;;2.70;1.02;;;;;;;18.48;100.00;99729.38;5008527;28;20124;-78
2022/09/09 06:38:55;;;;;;;3.70;1.05;;;;;;;18.46;100.00;99720.53;4993469;28;20029;-78
2022/09/09 06:41:22;;;;;;;3.00;0.95;;;;;;;18.58;100.00;99742.13;5009522;28;20170;-78
2022/09/09 06:43:48;;;;;;;1.60;0.93;;;;;;;18.60;100.00;99739.31;4991539;28;20037;-78
2022/09/09 06:46:18;;;;;;;5.15;1.33;;;;;;;18.41;99.99;99699.31;4990882;28;20040;-78
2022/09/09 06:48:45;;;;;;;5.00;1.00;;;;;;;18.87;99.22;99745.44;5007457;28;20857;-78
2022/09/09 06:51:13;;;;;;;5.68;2.90;;;;;;;19.15;98.61;99739.81;4990492;28;20068;-78
2022/09/09 06:53:40;;;;;;;3.03;0.80;;;;;;;19.40;96.92;99742.50;5009753;28;20417;-78
2022/09/09 06:56:22;;;;;;;3.28;0.70;;;;;;;19.48;95.63;99740.97;5005296;28;20026;-77
2022/09/09 06:58:49;;;;;;;1.80;0.88;;;;;;;19.46;94.89;99732.13;4983130;28;20063;-78
2022/09/09 07:01:17;;;;;;;3.50;1.05;;;;;;;19.52;94.41;99737.06;4995928;28;20038;-77
2022/09/09 07:03:47;;;;;;;4.78;1.05;;;;;;;19.45;94.01;99734.94;5008316;28;20128;-78
2022/09/09 07:06:23;;;;;;;2.60;1.00;;;;;;;19.46;92.94;99742.91;4989517;28;20030;-78
2022/09/09 07:08:59;;;;;;;2.78;1.05;;;;;;;19.93;94.91;99741.25;4993849;28;20461;-78
2022/09/09 07:11:30;;;;;;;1.33;0.82;;;;;;;20.50;92.14;99756.59;4993637;28;20417;-78
2022/09/09 07:13:57;;;;;;;2.85;0.73;;;;;;;21.61;85.70;99759.44;4973881;28;20388;-78
2022/09/09 07:16:24;;;;;;;6.90;1.25;;;;;;;21.47;81.24;99740.72;4990229;28;20030;-78
2022/09/09 07:18:50;;;;;;;3.97;1.75;;;;;;;21.19;81.75;99735.81;4990458;28;20057;-78
2022/09/09 07:21:17;;;;;;;2.50;1.67;;;;;;;21.10;83.30;99747.41;5014207;28;20034;-78
2022/09/09 07:23:43;;;;;;;2.05;0.80;;;;;;;21.48;79.80;99754.13;5015806;28;20017;-78
2022/09/09 07:26:15;;;;;;;2.25;0.73;;;;;;;22.20;78.93;99747.22;5022949;28;20096;-78
2022/09/09 07:28:41;;;;;;;0.93;0.60;;;;;;;23.32;73.69;99739.19;5010029;28;20026;-77
2022/09/09 07:31:13;;;;;;;2.10;0.80;;;;;;;24.31;69.33;99739.09;5009543;28;20084;-78
2022/09/09 07:33:40;;;;;;;5.25;1.23;;;;;;;24.22;66.79;99742.66;5052715;23;20103;-73
2022/09/09 07:36:07;;;;;;;1.77;0.75;;;;;;;24.19;65.97;99757.41;5069354;28;20044;-72
2022/09/09 07:38:45;;;;;;;1.70;0.82;;;;;;;24.39;67.54;99755.56;5070637;28;20052;-73
2022/09/09 07:41:13;;;;;;;4.00;0.70;;;;;;;24.20;66.48;99758.28;5072454;28;20354;-74
2022/09/09 07:43:41;;;;;;;3.35;0.80;;;;;;;23.33;68.41;99762.59;5051503;28;20144;-73
2022/09/09 07:46:10;;;;;;;3.40;0.90;;;;;;;22.88;70.84;99772.03;5066118;28;20033;-75
2022/09/09 07:48:35;;;;;;;3.65;1.15;;;;;;;22.54;73.09;99778.63;5083858;28;20035;-74
2022/09/09 07:51:07;;;;;;;4.88;0.90;;;;;;;22.39;74.96;99779.91;5069235;28;20024;-75
2022/09/09 07:53:34;;;;;;;3.97;0.90;;;;;;;21.98;75.04;99759.00;5070660;28;20344;-75
2022/09/09 07:56:09;;;;;;;2.90;0.90;;;;;;;21.73;76.85;99769.25;5061745;28;20134;-75
2022/09/09 07:58:35;;;;;;;3.97;0.80;;;;;;;21.60;77.93;99776.63;5072296;28;20033;-76
2022/09/09 08:01:10;;;;;;;1.05;0.65;;;;;;;21.42;79.24;99764.59;5073182;28;20028;-73
2022/09/09 08:03:35;;;;;;;2.05;0.88;;;;;;;21.27;81.15;99776.69;5088608;28;20070;-72
2022/09/09 08:06:03;;;;;;;1.75;0.80;;;;;;;21.18;82.68;99782.81;5051331;28;20427;-72
2022/09/09 08:08:29;;;;;;;5.80;1.67;;;;;;;20.95;83.82;99771.91;5048302;28;20079;-72
2022/09/09 08:11:02;;;;;;;4.75;1.05;;;;;;;20.97;84.57;99776.38;5056815;28;20040;-72
2022/09/09 08:13:27;;;;;;;4.25;0.93;;;;;;;20.91;86.27;99786.69;5069163;28;20039;-72
2022/09/09 08:15:53;;;;;;;5.97;2.10;;;;;;;20.92;87.18;99788.41;5051941;28;20029;-72
2022/09/09 08:18:18;;;;;;;8.60;1.55;;;;;;;20.90;87.70;99773.28;5051301;28;20456;-72
2022/09/09 08:20:44;;;;;;;5.13;1.20;;;;;;;20.97;86.59;99779.06;5033886;28;20112;-73
2022/09/09 08:23:09;;;;;;;2.05;0.80;;;;;;;21.00;86.10;99797.78;5053769;28;20492;-72
2022/09/09 08:25:34;;;;;;;2.72;0.88;;;;;;;20.91;86.43;99791.22;5050644;28;20044;-72
2022/09/09 08:28:00;;;;;;;5.15;1.25;;;;;;;20.88;86.74;99788.75;5050342;28;20447;-72
2022/09/09 08:30:26;;;;;;;3.00;1.15;;;;;;;20.85;87.98;99789.00;5050305;28;20076;-73
2022/09/09 08:32:52;;;;;;;3.88;1.02;;;;;;;20.90;88.45;99801.16;5052206;28;20096;-73
2022/09/09 08:35:17;;;;;;;3.10;1.00;;;;;;;20.91;88.08;99792.09;5035316;28;20025;-73
2022/09/09 08:37:42;;;;;;;4.88;1.00;;;;;;;20.92;87.79;99801.06;5054090;28;20108;-73
2022/09/09 08:40:22;;;;;;;5.32;0.80;;;;;;;21.01;88.21;99799.50;5035898;28;20025;-73
2022/09/09 08:42:53;;;;;;;5.25;0.95;;;;;;;21.07;87.06;99802.59;5054212;28;20039;-74
2022/09/09 08:45:29;;;;;;;4.55;1.30;;;;;;;21.10;86.86;99779.84;5054501;28;20116;-72
2022/09/09 08:48:00;;;;;;;3.63;1.42;;;;;;;21.28;87.63;99791.91;5064924;28;20051;-72
2022/09/09 08:50:33;;;;;;;5.03;1.35;;;;;;;21.35;87.18;99788.59;5063211;28;20644;-73
2022/09/09 08:53:08;;;;;;;;;;;;;;;21.39;85.71;99789.22;5058085;28;20020;-72
2022/09/09 08:55:54;;;;;;;2.90;0.90;;;;;;;21.51;85.72;99785.53;5074179;28;19918;-73
2022/09/09 08:58:25;;;;;;;3.90;1.00;;;;;;;21.44;85.09;99792.41;5074273;28;20033;-74
2022/09/09 09:00:59;;;;;;;6.88;1.35;;;;;;;21.58;87.24;99795.72;5074092;28;20020;-74
2022/09/09 09:03:33;;;;;;;8.48;1.52;;;;;;;21.82;85.93;99785.63;5074214;28;20131;-74
2022/09/09 09:06:36;;;;;;;3.40;0.73;;;;;;;22.03;85.37;99796.53;5073623;28;20047;-74
2022/09/09 09:09:19;;;;;;;3.05;0.85;;;;;;;22.14;83.37;99807.38;5073985;28;20091;-75
2022/09/09 09:12:01;;;;;;;3.30;0.60;;;;;;;22.03;82.43;99783.00;5055746;28;20024;-74
2022/09/09 09:14:30;;;;;;;4.22;1.02;;;;;;;22.14;82.99;99796.53;5055168;28;20115;-74
2022/09/09 09:17:06;;;;;;;4.68;0.95;;;;;;;22.08;83.83;99797.00;5072992;28;20120;-74
2022/09/09 09:19:34;;;;;;;8.05;1.17;;;;;;;22.03;82.59;99799.25;5041484;28;20021;-74
2022/09/09 09:22:20;;;;;;;8.40;1.73;;;;;;;21.90;81.83;99801.25;5053582;28;20728;-74
2022/09/09 09:25:01;;;;;;;3.95;1.10;;;;;;;21.96;81.66;99798.03;5071466;28;20028;-74
2022/09/09 09:27:36;;;;;;;3.97;0.82;;;;;;;21.80;81.86;99787.59;5072361;28;20031;-75
2022/09/09 09:30:14;;;;;;;1.50;0.75;;;;;;;21.80;81.59;99798.44;5073045;28;20044;-75
2022/09/09 09:32:44;;;;;;;3.17;0.90;;;;;;;21.74;83.08;99798.03;5073249;28;20399;-74
2022/09/09 09:35:13;;;;;;;1.90;0.73;;;;;;;21.81;82.10;99793.91;5053476;28;20028;-77
2022/09/09 09:37:41;;;;;;;1.75;0.68;;;;;;;21.88;81.07;99795.97;5072558;28;20106;-75
2022/09/09 09:40:15;;;;;;;1.33;0.77;;;;;;;21.92;80.96;99797.44;5073557;28;20024;-76
2022/09/09 09:42:51;;;;;;;1.58;0.60;;;;;;;21.89;78.75;99799.53;5072928;28;20158;-74
2022/09/09 09:45:34;;;;;;;1.85;0.50;;;;;;;22.10;78.46;99809.47;5069537;28;20017;-76
2022/09/09 09:48:09;;;;;;;3.55;0.70;;;;;;;22.38;75.90;99805.28;5073602;28;20056;-75
2022/09/09 09:50:40;;;;;;;4.25;0.60;;;;;;;22.62;75.02;99783.41;5072373;28;20495;-74
2022/09/09 09:53:17;;;;;;;1.52;0.60;;;;;;;22.97;72.72;99783.94;5065310;28;20093;-76
2022/09/09 09:55:59;;;;;;;1.40;0.50;;;;;;;23.38;69.86;99787.47;5073610;28;20021;-77
2022/09/09 09:58:27;;;;;;;2.28;0.50;;;;;;;23.31;68.18;99786.28;5054871;28;20032;-77
2022/09/09 10:00:54;;;;;;;3.55;0.63;;;;;;;23.25;68.42;99780.50;5072143;28;20044;-76
2022/09/09 10:03:31;;;;;;;2.03;0.50;;;;;;;23.35;68.28;99793.19;5071898;28;20103;-76
2022/09/09 10:05:57;;;;;;;5.25;0.98;;;;;;;23.66;68.68;99787.75;5072606;28;20028;-76
2022/09/09 10:08:26;;;;;;;2.78;0.70;;;;;;;24.18;66.28;99779.31;5072737;28;20149;-75
2022/09/09 10:11:03;;;;;;;3.10;0.65;;;;;;;24.67;65.97;99776.44;5072703;28;20472;-74
2022/09/09 10:14:14;;;;;;;2.95;1.50;;;;;;;24.89;65.83;99778.03;5051757;28;20018;-75
2022/09/09 10:16:52;;;;;;;5.10;1.15;;;;;;;24.33;62.99;99786.06;4990837;28;20033;-76
2022/09/09 10:19:31;;;;;;;1.27;0.50;;;;;;;23.84;63.71;99791.53;5045354;28;20033;-77
2022/09/09 10:22:11;;;;;;;2.53;0.40;;;;;;;23.74;66.47;99783.31;5052164;28;20055;-76
2022/09/09 10:24:37;;;;;;;4.78;0.60;;;;;;;23.87;64.54;99780.38;5055833;28;20083;-77
2022/09/09 10:27:29;;;;;;;3.50;0.93;;;;;;;23.81;63.47;99775.47;5052352;28;20423;-79
2022/09/09 10:29:55;;;;;;;2.38;0.47;;;;;;;23.99;64.95;99784.69;5052363;28;20025;-76
2022/09/09 10:32:37;;;;;;;3.78;0.52;;;;;;;25.26;63.23;99771.63;5052066;28;20021;-75
2022/09/09 10:35:11;;;;;;;5.65;0.70;;;;;;;26.21;59.79;99777.66;5052218;28;20037;-77
2022/09/09 10:37:36;;;;;;;5.10;0.70;;;;;;;26.99;56.97;99772.22;5051988;28;20032;-76
2022/09/09 10:40:11;;;;;;;1.15;0.30;;;;;;;27.45;51.81;99766.41;5033822;28;20441;-76
2022/09/09 10:42:37;;;;;;;1.02;0.43;;;;;;;28.30;51.37;99767.09;5051255;28;20037;-78
2022/09/09 10:45:17;;;;;;;1.70;0.30;;;;;;;28.51;48.77;99763.03;5051222;28;20044;-78
2022/09/09 10:47:54;;;;;;;1.95;0.43;;;;;;;27.82;48.68;99766.94;5054612;28;20082;-81
2022/09/09 10:50:50;;;;;;;3.00;0.65;;;;;;;27.04;49.61;99762.56;5053124;28;20024;-78
2022/09/09 10:53:37;;;;;;;3.72;0.60;;;;;;;26.50;53.08;99770.09;5062533;28;20031;-78
2022/09/09 10:56:08;;;;;;;4.80;0.75;;;;;;;26.19;55.43;99750.53;5094177;28;20079;-79
2022/09/09 10:58:42;;;;;;;3.58;0.68;;;;;;;26.07;58.24;99767.25;5092347;28;20040;-75
2022/09/09 11:01:44;;;;;;;1.75;0.50;;;;;;;25.28;59.33;99766.03;5094045;28;20047;-78
2022/09/09 11:04:23;;;;;;;2.75;0.50;;;;;;;24.59;59.83;99762.72;5056898;28;20040;-76
2022/09/09 11:06:54;;;;;;;1.35;0.60;;;;;;;24.22;61.17;99751.69;5074038;28;20157;-74
2022/09/09 11:09:28;;;;;;;1.50;0.50;;;;;;;24.44;61.23;99764.16;5078888;28;20025;-73
2022/09/09 11:11:59;;;;;;;1.27;0.32;;;;;;;24.84;61.38;99754.00;5072317;28;20077;-76
2022/09/09 11:14:45;;;;;;;2.20;0.50;;;;;;;24.32;60.76;99754.41;5072195;28;20024;-76
2022/09/09 11:17:18;;;;;;;3.25;0.70;;;;;;;24.18;62.34;99757.56;5071248;28;20021;-75
2022/09/09 11:19:44;;;;;;;2.30;0.60;;;;;;;24.30;63.55;99748.28;5071513;28;20608;-74
2022/09/09 11:22:53;;;;;;;2.50;0.40;;;;;;;24.63;60.95;99745.09;5041417;28;20544;-73
2022/09/09 11:25:26;;;;;;;2.67;0.88;;;;;;;24.38;61.70;99740.25;5017521;28;20041;-74
2022/09/09 11:28:10;;;;;;;3.13;0.73;;;;;;;24.11;62.75;99737.38;5063484;28;20100;-74
2022/09/09 11:30:50;;;;;;;1.38;0.47;;;;;;;23.78;62.76;99729.56;5071709;28;20320;-73
2022/09/09 11:33:21;;;;;;;0.77;0.32;;;;;;;23.75;62.17;99735.28;5073994;28;20048;-72
2022/09/09 11:36:11;;;;;;;4.18;0.75;;;;;;;23.60;61.41;99729.41;5074154;28;20052;-75
2022/09/09 11:38:51;;;;;;;2.67;0.73;;;;;;;23.68;62.75;99731.41;5063436;28;20029;-75
2022/09/09 11:41:20;;;;;;;0.52;0.32;;;;;;;23.73;61.82;99727.28;5053266;28;20059;-72
2022/09/09 11:43:53;;;;;;;1.65;0.50;;;;;;;23.91;62.10;99724.72;5053470;28;20032;-73
2022/09/09 11:46:35;;;;;;;3.00;0.40;;;;;;;24.06;61.09;99720.63;5052210;28;20021;-73
2022/09/09 11:49:03;;;;;;;0.80;0.40;;;;;;;24.98;60.58;99712.69;5053063;28;20029;-80
2022/09/09 11:51:30;;;;;;;1.40;0.50;;;;;;;25.86;54.92;99716.56;5052145;28;20534;-75